x

Port Orford - 15 Nm West Of Port Orford, Or (46015) Wave Buoy

1:50am - Mon 26th Jan 2015 All times are PST. -8 hours from GMT.

  • Sig Wave height 8.5ft
  • Swell Direction
  • Peak Period 15s
  • Average Period 8s
  • Wind
    16mph, 20mph gusts
  • Sea Temp 55°f
  • Air Temp 57°f
  • Sea Pressure 1014.5mb
  • Port Orford - 15 Nm West Of Port Orford, Or
  • Port Orford - 15 Nm West Of Port Orford, Or

More Historic Weather Station data

Upgrade to MSW Pro to gain access to the past 30 days of data for over 8000 Wavebouys and Weather Stations around the globe.

Join Pro

Comparision Forecast

View Surf forecast
   
Mon 01/26 1:50am 8.5ft 15s 8s 16 20 mph 1014.5mb 55f 57f
12:50am 8.5ft 15s 8s 18 22 mph 1014.3mb 55f 58f
Sun 01/25 11:50pm 8.5ft 13s 9s 16 20 mph 1014.9mb 55f 57f
10:50pm 8.5ft 14s 9s 18 22 mph 1015.1mb 55f 58f
9:50pm 8ft 12s 8s 16 18 mph 1015.1mb 55f 58f
8:50pm 8.5ft 14s 9s 16 18 mph 1015.1mb 55f 58f
7:50pm 8.5ft 15s 10s 7 9 mph 1015.2mb 55f 56f
6:50pm 8ft 15s 10s 4 7 mph 1015.2mb 55f 56f
5:50pm 7.5ft 14s 9s 9 11 mph 1015.2mb 55f 57f
4:50pm 7.5ft 14s 9s 9 11 mph 1015.2mb 55f 58f
3:50pm  -   -   -  11 13 mph 1015.6mb 55f 58f
2:50pm 8.5ft 14s 10s 16 18 mph 1015.6mb 55f 58f
1:50pm 7.5ft 13s 9s 13 16 mph 1016.3mb 56f 58f
12:50pm 9ft 13s 10s 2 4 mph 1017.7mb 55f 57f
11:50am 7.5ft 14s 9s 2 4 mph 1018.7mb 55f 56f
10:50am 8ft 15s 10s 4 7 mph 1018.6mb 55f 56f
9:50am 7.5ft 15s 10s 2 4 mph 1017.8mb 55f 56f
8:50am 8ft 14s 10s 4 7 mph 1017.5mb 55f 55f
7:50am 9ft 14s 10s 7 9 mph 1017.5mb 55f 55f
6:50am 8.5ft 13s 9s 9
mph
1018.1mb 55f 55f
5:50am 9ft 14s 10s 9 11 mph 1018.6mb 55f 55f
4:50am 9ft 14s 10s 9 11 mph 1019.5mb 55f 55f
3:50am 8.5ft 14s 9s 11 13 mph 1020.2mb 55f 55f
2:50am 9ft 14s 9s 9 11 mph 1020.7mb 55f 55f
1:50am 9.5ft 15s 10s 13
mph
1020.7mb 55f 55f
12:50am 10ft 15s 10s 11 13 mph 1021.3mb 55f 55f
Sat 01/24 11:50pm 9ft 15s 9s 13 16 mph 1021.9mb 55f 56f
10:50pm 8.5ft 12s 9s 13 18 mph 1021.9mb 55f 56f
9:50pm 10ft 15s 10s 16 18 mph 1021.7mb 55f 56f
8:50pm 9ft 15s 9s 16 20 mph 1022.3mb 55f 55f
7:50pm 8.5ft 15s 9s 18 20 mph 1022.7mb 55f 55f
6:50pm 9ft 15s 9s 18 20 mph 1023mb 55f 55f
5:50pm 9.5ft 15s 9s 16 18 mph 1023.1mb 55f 55f
4:50pm 10.5ft 14s 10s 13 18 mph 1023.6mb 55f 55f
3:50pm 10ft 16s 10s 11 13 mph 1023.7mb 55f 55f
2:50pm 12ft 15s 10s 13 16 mph 1023.8mb 55f 55f
1:50pm 10.5ft 16s 11s 11 16 mph 1024.2mb 55f 55f
12:50pm 9.5ft 15s 11s 9 11 mph 1025mb 55f 55f
11:50am 10.5ft 13s 11s 7 9 mph 1026.2mb 55f 53f
10:50am 10ft 16s 11s 9 11 mph 1026.8mb 55f 53f
9:50am 10ft 16s 11s 9 11 mph 1027.1mb 55f 54f
8:50am 11ft 14s 11s 9 11 mph 1027.2mb 55f 54f
7:50am 10ft 16s 11s 11
mph
1027.1mb 55f 53f
6:50am 10ft 16s 11s 11 13 mph 1027.2mb 55f 53f
5:50am 9.5ft 15s 10s 9 11 mph 1027.6mb 55f 53f
4:50am 12.5ft 16s 12s 9 11 mph 1028.1mb 55f 54f
3:50am 10.5ft 15s 11s 11 13 mph 1028.3mb 55f 54f
2:50am 11.5ft 16s 11s 9 11 mph 1028mb 55f 53f
1:50am 11ft 17s 11s 9 11 mph 1027.8mb 55f 53f
12:50am 11ft 16s 11s 7 9 mph 1027.8mb 55f 53f
Fri 01/23 11:50pm 10ft 16s 11s 9 13 mph 1028.7mb 55f 53f
10:50pm 10ft 16s 11s 9 11 mph 1029.4mb 55f 53f
9:50pm 11ft 17s 11s 7 9 mph 1030.3mb 55f 54f
8:50pm 11ft 17s 11s 7 11 mph 1030.5mb 55f 55f
7:50pm 11ft 17s 11s 9 11 mph 1031mb 55f 55f
6:50pm 10.5ft 17s 11s 7 9 mph 1030.4mb 55f 55f
5:50pm 11ft 17s 12s 7 9 mph 1030.1mb 55f 55f
4:50pm 10.5ft 17s 11s 4 7 mph 1029.3mb 55f 55f
3:50pm 10.5ft 17s 11s 2 4 mph 1029mb 55f 55f
2:50pm 11ft 17s 12s 2 7 mph 1029.4mb 55f 55f
1:50pm 10ft 17s 12s  -  2 mph 1029.7mb 54f 55f
12:50pm 10ft 17s 11s 4 7 mph 1030.8mb 54f 55f
11:50am 10ft 17s 11s 11 13 mph 1031.5mb 54f 55f
10:50am 9ft 19s 11s 2 4 mph 1031.2mb 54f 54f
9:50am 9ft 19s 11s 2 4 mph 1031.6mb 54f 54f
8:50am 8ft 19s 10s 4 7 mph 1030.8mb 54f 54f
7:50am 8.5ft 19s 11s 2 4 mph 1030.9mb 54f 53f
6:50am 8ft 19s 10s 4 7 mph 1030.4mb 54f 54f
5:50am 8.5ft 19s 11s  -  2 mph 1030.1mb 54f 54f
4:50am 8.5ft 12s 10s 4 7 mph 1030.1mb 54f 54f
3:50am 8ft 12s 10s 4 7 mph 1029.8mb 54f 53f
2:50am 9ft 11s 11s 2 4 mph 1030.1mb 54f 53f
1:50am 9ft 12s 10s 2 4 mph 1030mb 54f 53f
12:50am 8ft 11s 10s 2 4 mph 1029.8mb 54f 53f
Thu 01/22 11:50pm 9ft 12s 10s 2 4 mph 1030.4mb 54f 53f
10:50pm 8.5ft 12s 10s 2 4 mph 1029.7mb 54f 53f
9:50pm 7.5ft 13s 10s 4
mph
1029.4mb 54f 53f
8:50pm 8.5ft 12s 10s 2 4 mph 1029.6mb 54f 54f
7:50pm 8ft 12s 10s 4 7 mph 1029.6mb 54f 54f
6:50pm 7.5ft 12s 10s 9 13 mph 1028.9mb 54f 54f
5:50pm 7.5ft 12s 10s 11 13 mph 1027.8mb 54f 54f
4:50pm 7ft 11s 10s 11 13 mph 1027.7mb 54f 55f
3:50pm 8ft 11s 10s 7 9 mph 1027.1mb 54f 55f
2:50pm 7ft 10s 9s 7 9 mph 1026.7mb 55f 55f
1:50pm 7.5ft 12s 9s 9
mph
1026.9mb 55f 54f
12:50pm 6.5ft 11s 9s 7 9 mph 1027.9mb 55f 55f
11:50am 6ft 10s 9s 2 7 mph 1028mb 55f 55f